Rapid City Regional Airport
KRAP : now visible

Airfield :











YOU CAN JOIN US ON...

 
LOGIN :

Register | Disclaimer

   EN    FR    IT 

 









Legend :    VFR   Marginal VFR   IFR   Intensive IFR   Very Intensive IFR
Visi :
Ceiling :
>= 8 km
>= 3000ft
5 to 8 km
1000 to 3000 ft
1500m to 5 km
500 to 1000 ft
800 to 1500m
200 to 500 ft
< 800m
< 200 ft
Symbols :   Thunderstorms  Fog  Heavy snow  Heavy precipitations  Wind > 20 kt






- Airport Elevation : 3204 ft
- IATA code : RAP


KRAP - Rapid City Regional

CURRENT METAR :
  • 171852Z 15012G18KT 10SM OVC018 17/10 A3002 RMK AO2 SLP160 T01670100

EXPIRED METARs :
  • 171824Z 15013G19KT 10SM BKN015 16/11 A3002 RMK AO2 T01610106
  • 171752Z 14010KT 10SM OVC012 15/11 A3002 RMK AO2 SLP161 T01500106 10156 20083 58005
  • 171738Z 15011KT 10SM OVC011 15/11 A3002 RMK AO2 T01500106
  • 171706Z 14008KT 10SM OVC006 14/11 A3002 RMK AO2 CIG 003V010 T01390106
  • 171652Z 13009KT 10SM OVC004 12/11 A3002 RMK AO2 CIG 002V006 SLP167 T01170106
  • 171639Z 13008KT 9SM OVC002 12/11 A3003 RMK AO2 T01170106
  • 171624Z 14007KT 5SM BR OVC001 12/11 A3003 RMK AO2 T01170106
  • 171615Z 15007KT 2SM BR OVC001 12/11 A3003 RMK AO2 T01170106
  • 171556Z 15007KT 1/2SM FG OVC001 11/11 A3003 RMK AO2 T01110106 RVRNO

TAF KRAP
Valid from the 17 at 18:00 until the 18 at 18:00 UTC


171736Z 1718/1818 15012KT P6SM SCT040
TEMPO 1718/1719 BKN007
KZDV FIR / North America



MET'MAP, your aeronautical weather chart ! - Copyright ORBIFLY December 2007 - Disclaimer

ORBIFLY MET'MAP TEAM :

Programming & Development : Alexandra Zaïnal
Concept & original design : Baudouin d'Aumeries
Assistance for programming : Marc-Olivier Méhu
Technical & hardware support : Manuel Goepfert

Contact : metmap@orbifly.com




SOURCES & CREDITS :

   NOAA       Earth
Advisory